North Quincy, Massachusetts
Current Conditions -  °F | °C
As of 1:54 PM on Saturday 20 Dec 2014 (Local Time) from KBOS Reporting Station
Overcast Overcast  
Wind Chill: 28°   Ceiling: 2100
Heat Index: 34°   Visibility: 10mi
Dew Point: 24°   Wind: 7mph
Humidity: 67%   Direction: 350°N
Pressure: 30.27"   Gusts: NA
Location:  42.2866°N, 71.0248°W
Report Text: KBOS 201854Z 35006KT 10SM FEW017 OVC021 01/M04 A3027 RMK AO2 SLP249 T00111044
Loading
Personal Weather Stations






























Interactive Weather Map New forecast layout! Learn more

10-Day Weather Forecast

Advertisements
Track Severe Weather on mobile